Loogootee, Indiana
Current Conditions -  °F | °C
As of 9:55 AM on Sunday 21 Dec 2014 (Local Time) from KDCY Reporting Station
Clear Clear  
Wind Chill: 26°   Ceiling: Unl
Heat Index: 32°   Visibility: 7mi
Dew Point: 27°   Wind: 7mph
Humidity: 80%   Direction: 140°SE
Pressure: 30.28"   Gusts: NA
Location:  38.68°N, 86.91°W
Report Text: KDCY 211555Z AUTO 14006KT 7SM CLR 00/M03 A3028 RMK AO2 T00001030
Loading
Personal Weather Stations






























Interactive Weather Map New forecast layout! Learn more

10-Day Weather Forecast

Advertisements
Track Severe Weather on mobile